CheckWX is a tool to help pilots better visualize weather data.  It is not intended as a substitute for an official pre-flight weather briefing.

18:25:36 UTC

LICT METAR
Vincenzo Florio Trapani-Birgi Airport
Trapani, Italy
Current

31 mins ago

LICT 161755Z 06004KT CAVOK 11/08 Q1028 RMK SKC VIS MIN 9999 WIND THR13 02003KT BLU
Observed
Feb-16 @ 17:55 UTC
Wind
  • 060° at 4 KTS
Visibility
10,000+ meters
Flight Rules
VFR
Cloud Levels
  • Clear skies
Temperature
11°C / 52°F
Dewpoint
C / 46°F
Humidity
82%
Altimeter
30.35" Hg
Pressure
1027.92 hPa
Previous

2 hours ago

LICT 161655Z 02006KT CAVOK 14/09 Q1028 RMK SKC VIS MIN 9999 WIND THR13 36008KT 330V030 BLU
Observed
Feb-16 @ 16:55 UTC
Wind
  • 020° at 6 KTS
Visibility
10,000+ meters
Flight Rules
VFR
Cloud Levels
  • Clear skies
Temperature
14°C / 57°F
Dewpoint
C / 48°F
Humidity
72%
Altimeter
30.35" Hg
Pressure
1027.92 hPa
Previous

3 hours ago

LICT 161555Z 01012KT 9999 FEW030 15/09 Q1028 RMK FEW VIS MIN 9999 WIND THR13 35011KT 300V010 BLU
Observed
Feb-16 @ 15:55 UTC
Wind
  • 010° at 12 KTS
Visibility
10,000+ meters
Flight Rules
VFR
Cloud Levels
  • Few at 3,000' AGL
Temperature
15°C / 59°F
Dewpoint
C / 48°F
Humidity
68%
Altimeter
30.35" Hg
Pressure
1027.92 hPa